Time;durP1;ratioP1;P1;durP2;ratioP2;P2;SDS_P1;SDS_P2;PMS_P1;PMS_P2;Temp;Humidity;BMP_temperature;BMP_pressure;BME280_temperature;BME280_humidity;BME280_pressure;Samples;Min_cycle;Max_cycle;Signal;HPM_P1;HPM_P2
2021/01/26 00:00:37;;;;;;;;;;;19.90;34.90;;;;;;470892;249;1331;-54
2021/01/26 00:02:39;;;;;;;;;;;19.90;34.90;;;;;;466555;255;1110;-54
2021/01/26 00:04:40;;;;;;;;;;;19.90;34.90;;;;;;470711;253;978;-54
2021/01/26 00:06:41;;;;;;;;;;;19.90;34.90;;;;;;466685;255;1088;-53
2021/01/26 00:08:42;;;;;;;;;;;19.90;33.60;;;;;;470758;253;1087;-53
2021/01/26 00:10:44;;;;;;;;;;;19.90;34.90;;;;;;466651;255;2201;-53
2021/01/26 00:12:45;;;;;;;;;;;19.90;34.90;;;;;;470760;253;1219;-54
2021/01/26 00:14:46;;;;;;;;;;;19.90;34.90;;;;;;466612;256;1061;-54
2021/01/26 00:16:48;;;;;;;;;;;19.90;34.90;;;;;;470825;253;1065;-54
2021/01/26 00:18:49;;;;;;;;;;;19.90;34.90;;;;;;466658;256;1017;-54
2021/01/26 00:20:50;;;;;;;;;;;19.90;34.90;;;;;;470827;253;1207;-52
2021/01/26 00:22:52;;;;;;;;;;;19.90;34.90;;;;;;466748;255;1060;-54
2021/01/26 00:24:53;;;;;;;;;;;19.90;34.90;;;;;;470893;253;1190;-54
2021/01/26 00:26:55;;;;;;;;;;;19.90;34.90;;;;;;466636;256;1360;-53
2021/01/26 00:28:56;;;;;;;;;;;19.90;34.90;;;;;;470777;253;1375;-53
2021/01/26 00:30:57;;;;;;;;;;;19.90;34.80;;;;;;466652;255;2146;-53
2021/01/26 00:32:59;;;;;;;;;;;19.90;34.80;;;;;;470683;253;1138;-54
2021/01/26 00:35:00;;;;;;;;;;;19.90;34.80;;;;;;466654;255;1206;-54
2021/01/26 00:37:01;;;;;;;;;;;19.90;34.80;;;;;;470622;253;1141;-53
2021/01/26 00:39:03;;;;;;;;;;;19.90;34.80;;;;;;466684;255;1062;-54
2021/01/26 00:41:04;;;;;;;;;;;19.90;34.90;;;;;;470736;253;1619;-54
2021/01/26 00:43:05;;;;;;;;;;;19.90;34.90;;;;;;466699;255;1193;-54
2021/01/26 00:45:07;;;;;;;;;;;19.90;34.90;;;;;;470728;253;1086;-54
2021/01/26 00:47:08;;;;;;;;;;;19.90;34.80;;;;;;466678;255;1112;-54
2021/01/26 00:49:09;;;;;;;;;;;19.90;34.80;;;;;;470768;253;1030;-54
2021/01/26 00:51:10;;;;;;;;;;;19.90;34.80;;;;;;466653;256;2185;-54
2021/01/26 00:53:12;;;;;;;;;;;19.90;34.80;;;;;;470725;253;1198;-54
2021/01/26 00:55:13;;;;;;;;;;;19.90;34.80;;;;;;466631;256;1165;-54
2021/01/26 00:57:19;;;;;;;;;;;20.00;35.10;;;;;;470717;253;1234;-54
2021/01/26 00:59:17;;;;;;;;;;;20.10;34.90;;;;;;466516;255;2140;-54
2021/01/26 01:01:18;;;;;;;;;;;20.10;33.40;;;;;;470874;253;1305;-54
2021/01/26 01:03:20;;;;;;;;;;;20.10;34.70;;;;;;466783;255;990;-54
2021/01/26 01:05:21;;;;;;;;;;;20.00;34.70;;;;;;470751;253;1145;-54
2021/01/26 01:07:22;;;;;;;;;;;20.00;34.90;;;;;;466693;255;1064;-53
2021/01/26 01:09:23;;;;;;;;;;;19.90;34.90;;;;;;470805;253;1068;-54
2021/01/26 01:11:25;;;;;;;;;;;19.90;35.10;;;;;;466659;256;2185;-54
2021/01/26 01:13:26;;;;;;;;;;;19.80;35.10;;;;;;470752;253;1235;-54
2021/01/26 01:15:27;;;;;;;;;;;19.70;35.20;;;;;;466693;255;1015;-54
2021/01/26 01:17:29;;;;;;;;;;;19.70;35.30;;;;;;470720;253;1051;-53
2021/01/26 01:19:30;;;;;;;;;;;19.70;35.30;;;;;;466771;255;1057;-54
2021/01/26 01:21:31;;;;;;;;;;;19.60;35.30;;;;;;470793;253;1074;-53
2021/01/26 01:23:32;;;;;;;;;;;19.60;34.10;;;;;;466674;255;1141;-54
2021/01/26 01:25:34;;;;;;;;;;;19.50;35.50;;;;;;470655;253;1237;-53
2021/01/26 01:27:35;;;;;;;;;;;19.50;35.40;;;;;;466593;256;1239;-54
2021/01/26 01:29:36;;;;;;;;;;;19.50;35.60;;;;;;470748;253;982;-52
2021/01/26 01:31:38;;;;;;;;;;;19.50;35.60;;;;;;466602;256;2200;-53
2021/01/26 01:33:39;;;;;;;;;;;19.40;35.70;;;;;;470788;253;1096;-54
2021/01/26 01:35:41;;;;;;;;;;;19.40;35.70;;;;;;466639;255;1084;-53
2021/01/26 01:37:42;;;;;;;;;;;19.30;35.70;;;;;;470761;253;1144;-53
2021/01/26 01:39:43;;;;;;;;;;;19.30;35.80;;;;;;466747;255;1058;-53
2021/01/26 01:41:44;;;;;;;;;;;19.30;35.80;;;;;;470728;253;1053;-53
2021/01/26 01:43:46;;;;;;;;;;;19.30;35.90;;;;;;466668;256;1208;-54
2021/01/26 01:45:47;;;;;;;;;;;19.20;35.90;;;;;;470689;253;1047;-52
2021/01/26 01:47:48;;;;;;;;;;;19.20;35.90;;;;;;466616;253;1158;-54
2021/01/26 01:49:49;;;;;;;;;;;19.20;36.00;;;;;;470846;253;1059;-53
2021/01/26 01:51:51;;;;;;;;;;;19.10;36.00;;;;;;466623;256;2190;-54
2021/01/26 01:53:52;;;;;;;;;;;19.10;36.00;;;;;;470818;253;1153;-53
2021/01/26 01:55:53;;;;;;;;;;;19.10;36.10;;;;;;466741;255;1067;-53
2021/01/26 01:57:55;;;;;;;;;;;19.10;36.10;;;;;;470938;253;1389;-53
2021/01/26 01:59:56;;;;;;;;;;;19.10;36.10;;;;;;466809;255;1136;-53
2021/01/26 02:01:57;;;;;;;;;;;19.00;36.10;;;;;;470767;253;1126;-54
2021/01/26 02:03:58;;;;;;;;;;;19.00;36.20;;;;;;466691;255;1087;-53
2021/01/26 02:06:00;;;;;;;;;;;19.00;36.20;;;;;;470709;253;1058;-53
2021/01/26 02:08:01;;;;;;;;;;;19.00;36.30;;;;;;466597;256;1132;-53
2021/01/26 02:10:02;;;;;;;;;;;19.00;36.30;;;;;;470712;253;1123;-53
2021/01/26 02:12:03;;;;;;;;;;;18.90;36.30;;;;;;466641;255;2118;-53
2021/01/26 02:14:05;;;;;;;;;;;18.90;36.30;;;;;;470825;253;1281;-54
2021/01/26 02:16:06;;;;;;;;;;;18.90;36.30;;;;;;466612;255;1055;-53
2021/01/26 02:18:07;;;;;;;;;;;18.90;36.30;;;;;;470727;253;1134;-53
2021/01/26 02:20:09;;;;;;;;;;;18.90;36.40;;;;;;466668;255;995;-53
2021/01/26 02:22:10;;;;;;;;;;;18.90;36.40;;;;;;470779;253;1251;-53
2021/01/26 02:24:12;;;;;;;;;;;18.80;36.40;;;;;;466658;255;1078;-53
2021/01/26 02:26:13;;;;;;;;;;;18.80;36.40;;;;;;470728;253;1100;-53
2021/01/26 02:28:14;;;;;;;;;;;18.80;36.40;;;;;;466729;255;1172;-53
2021/01/26 02:30:16;;;;;;;;;;;18.80;36.40;;;;;;470736;253;2203;-54
2021/01/26 02:32:17;;;;;;;;;;;18.80;36.50;;;;;;466660;255;1190;-54
2021/01/26 02:34:18;;;;;;;;;;;18.80;36.50;;;;;;470883;253;1153;-53
2021/01/26 02:36:19;;;;;;;;;;;18.70;36.50;;;;;;466728;255;1071;-54
2021/01/26 02:38:21;;;;;;;;;;;18.70;36.50;;;;;;470739;253;1155;-53
2021/01/26 02:40:22;;;;;;;;;;;18.70;36.60;;;;;;466646;255;1302;-53
2021/01/26 02:42:23;;;;;;;;;;;18.70;36.60;;;;;;470694;253;1087;-54
2021/01/26 02:44:24;;;;;;;;;;;18.60;36.60;;;;;;466581;256;1292;-54
2021/01/26 02:46:26;;;;;;;;;;;18.60;35.30;;;;;;470733;253;1094;-53
2021/01/26 02:48:27;;;;;;;;;;;18.60;36.60;;;;;;466657;256;1081;-53
2021/01/26 02:50:28;;;;;;;;;;;18.60;36.60;;;;;;470641;253;2182;-52
2021/01/26 02:52:30;;;;;;;;;;;18.60;36.60;;;;;;466718;255;1168;-54
2021/01/26 02:54:31;;;;;;;;;;;18.60;36.60;;;;;;470935;253;1077;-53
2021/01/26 02:56:32;;;;;;;;;;;18.60;36.70;;;;;;466638;255;1179;-54
2021/01/26 02:58:33;;;;;;;;;;;18.60;36.70;;;;;;470797;253;1214;-53
2021/01/26 03:00:35;;;;;;;;;;;18.50;36.60;;;;;;466552;255;1329;-53
2021/01/26 03:02:36;;;;;;;;;;;18.50;36.70;;;;;;470667;253;1157;-53
2021/01/26 03:04:37;;;;;;;;;;;18.50;36.70;;;;;;466621;256;1073;-53
2021/01/26 03:06:39;;;;;;;;;;;18.50;36.70;;;;;;470658;253;1195;-54
2021/01/26 03:08:40;;;;;;;;;;;18.50;36.70;;;;;;466554;255;1171;-54
2021/01/26 03:10:41;;;;;;;;;;;18.50;36.80;;;;;;470831;253;2146;-53
2021/01/26 03:12:43;;;;;;;;;;;18.50;36.80;;;;;;466672;255;1317;-53
2021/01/26 03:14:44;;;;;;;;;;;18.50;36.80;;;;;;470669;253;1198;-53
2021/01/26 03:16:45;;;;;;;;;;;18.50;36.80;;;;;;466609;256;1075;-52
2021/01/26 03:18:47;;;;;;;;;;;18.50;36.80;;;;;;470784;253;1102;-53
2021/01/26 03:20:48;;;;;;;;;;;18.40;36.80;;;;;;466761;255;1050;-53
2021/01/26 03:22:49;;;;;;;;;;;18.40;36.80;;;;;;470772;253;1097;-53
2021/01/26 03:24:51;;;;;;;;;;;18.40;36.80;;;;;;466727;255;1084;-53
2021/01/26 03:26:52;;;;;;;;;;;18.40;36.80;;;;;;470793;253;1128;-53
2021/01/26 03:28:53;;;;;;;;;;;18.40;36.80;;;;;;466598;256;1188;-53
2021/01/26 03:30:54;;;;;;;;;;;18.40;36.80;;;;;;470750;253;2203;-54
2021/01/26 03:32:56;;;;;;;;;;;18.40;36.90;;;;;;466611;256;1104;-53
2021/01/26 03:34:57;;;;;;;;;;;18.40;36.80;;;;;;470729;253;1012;-53
2021/01/26 03:36:58;;;;;;;;;;;18.40;36.90;;;;;;466550;255;1071;-53
2021/01/26 03:39:00;;;;;;;;;;;18.40;36.90;;;;;;470837;253;1002;-54
2021/01/26 03:41:01;;;;;;;;;;;18.40;36.90;;;;;;466677;256;1066;-54
2021/01/26 03:43:02;;;;;;;;;;;18.30;35.50;;;;;;470842;253;1059;-53
2021/01/26 03:45:03;;;;;;;;;;;18.30;36.80;;;;;;466746;255;1271;-54
2021/01/26 03:47:05;;;;;;;;;;;18.40;36.90;;;;;;470720;253;1066;-54
2021/01/26 03:49:06;;;;;;;;;;;18.30;36.90;;;;;;466735;255;1041;-53
2021/01/26 03:51:07;;;;;;;;;;;18.30;35.60;;;;;;470899;253;2156;-53
2021/01/26 03:53:09;;;;;;;;;;;18.30;36.90;;;;;;466683;255;1070;-54
2021/01/26 03:55:10;;;;;;;;;;;18.30;36.90;;;;;;470777;253;973;-53
2021/01/26 03:57:11;;;;;;;;;;;18.30;36.90;;;;;;466679;256;1085;-53
2021/01/26 03:59:13;;;;;;;;;;;18.30;36.90;;;;;;470747;253;1210;-53
2021/01/26 04:01:14;;;;;;;;;;;18.30;36.90;;;;;;466672;255;1087;-53
2021/01/26 04:03:15;;;;;;;;;;;18.30;37.00;;;;;;470894;253;1046;-54
2021/01/26 04:05:17;;;;;;;;;;;18.30;37.00;;;;;;466740;255;1085;-54
2021/01/26 04:07:18;;;;;;;;;;;18.30;36.90;;;;;;470703;253;1195;-54
2021/01/26 04:09:19;;;;;;;;;;;18.30;36.80;;;;;;466661;256;1198;-54
2021/01/26 04:11:20;;;;;;;;;;;18.30;36.70;;;;;;470721;253;2202;-54
2021/01/26 04:13:22;;;;;;;;;;;18.40;36.70;;;;;;466956;255;1089;-53
2021/01/26 04:15:23;;;;;;;;;;;18.40;36.70;;;;;;470857;253;1211;-54
2021/01/26 04:17:24;;;;;;;;;;;18.40;36.60;;;;;;466634;255;1058;-53
2021/01/26 04:19:26;;;;;;;;;;;18.40;36.60;;;;;;470725;249;1317;-54
2021/01/26 04:21:29;;;;;;;;;;;18.50;36.60;;;;;;466957;255;1054;-54
2021/01/26 04:23:28;;;;;;;;;;;18.50;36.50;;;;;;470670;253;2182;-53
2021/01/26 04:25:29;;;;;;;;;;;18.50;36.50;;;;;;470723;253;1362;-54
2021/01/26 04:27:31;;;;;;;;;;;18.50;36.40;;;;;;466597;256;1068;-53
2021/01/26 04:29:32;;;;;;;;;;;18.50;36.40;;;;;;471020;253;1204;-53
2021/01/26 04:31:33;;;;;;;;;;;18.50;36.40;;;;;;466615;256;2209;-54
2021/01/26 04:33:34;;;;;;;;;;;18.60;36.40;;;;;;470722;253;1066;-53
2021/01/26 04:35:36;;;;;;;;;;;18.60;36.30;;;;;;466605;256;1050;-53
2021/01/26 04:37:37;;;;;;;;;;;18.60;36.30;;;;;;470794;253;1018;-54
2021/01/26 04:39:38;;;;;;;;;;;18.60;36.20;;;;;;466779;255;1190;-54
2021/01/26 04:41:39;;;;;;;;;;;18.60;36.20;;;;;;470967;253;1187;-54
2021/01/26 04:43:41;;;;;;;;;;;18.70;36.20;;;;;;466696;256;1190;-54
2021/01/26 04:45:42;;;;;;;;;;;18.70;36.20;;;;;;470776;253;1197;-53
2021/01/26 04:47:43;;;;;;;;;;;18.70;36.10;;;;;;466602;254;1514;-54
2021/01/26 04:49:45;;;;;;;;;;;18.70;36.10;;;;;;470746;253;1280;-53
2021/01/26 04:51:46;;;;;;;;;;;18.80;34.80;;;;;;466595;256;2217;-54
2021/01/26 04:53:48;;;;;;;;;;;18.80;36.10;;;;;;470820;253;1051;-54
2021/01/26 04:55:49;;;;;;;;;;;18.80;36.10;;;;;;466645;255;1104;-54
2021/01/26 04:57:50;;;;;;;;;;;18.80;36.10;;;;;;470690;253;1297;-53
2021/01/26 04:59:51;;;;;;;;;;;18.80;36.00;;;;;;466612;256;1297;-54
2021/01/26 05:01:53;;;;;;;;;;;18.80;36.00;;;;;;470735;253;1222;-54
2021/01/26 05:03:55;;;;;;;;;;;18.80;36.00;;;;;;466696;255;1048;-54
2021/01/26 05:05:56;;;;;;;;;;;18.90;35.90;;;;;;470647;253;1887;-53
2021/01/26 05:07:57;;;;;;;;;;;18.90;36.00;;;;;;470738;252;1076;-54
2021/01/26 05:09:58;;;;;;;;;;;18.90;35.90;;;;;;466778;255;1297;-54
2021/01/26 05:11:59;;;;;;;;;;;18.90;35.90;;;;;;470711;253;2144;-54
2021/01/26 05:14:01;;;;;;;;;;;18.90;35.90;;;;;;466588;255;1021;-54
2021/01/26 05:16:02;;;;;;;;;;;18.90;35.90;;;;;;470650;253;1173;-53
2021/01/26 05:18:03;;;;;;;;;;;18.90;35.80;;;;;;466542;256;1062;-53
2021/01/26 05:20:05;;;;;;;;;;;19.00;35.90;;;;;;470772;253;1093;-54
2021/01/26 05:22:06;;;;;;;;;;;19.00;35.90;;;;;;466715;255;1162;-53
2021/01/26 05:24:07;;;;;;;;;;;19.00;35.80;;;;;;470563;253;1078;-54
2021/01/26 05:26:12;;;;;;;;;;;19.00;35.80;;;;;;466650;255;1071;-54
2021/01/26 05:28:10;;;;;;;;;;;19.00;35.80;;;;;;470423;253;2139;-54
2021/01/26 05:30:11;;;;;;;;;;;19.00;35.80;;;;;;470667;253;1206;-54
2021/01/26 05:32:12;;;;;;;;;;;19.00;34.40;;;;;;466702;255;2209;-54
2021/01/26 05:34:14;;;;;;;;;;;19.00;35.80;;;;;;470705;253;1069;-54
2021/01/26 05:36:15;;;;;;;;;;;19.10;35.70;;;;;;466568;256;1089;-53
2021/01/26 05:38:16;;;;;;;;;;;19.10;35.80;;;;;;470666;253;1185;-54
2021/01/26 05:40:17;;;;;;;;;;;19.10;35.70;;;;;;466395;256;1073;-53
2021/01/26 05:42:19;;;;;;;;;;;19.10;35.70;;;;;;470510;253;1154;-54
2021/01/26 05:44:20;;;;;;;;;;;19.10;35.70;;;;;;466483;255;1067;-54
2021/01/26 05:46:21;;;;;;;;;;;19.10;35.60;;;;;;470296;253;1223;-54
2021/01/26 05:48:23;;;;;;;;;;;19.10;35.60;;;;;;466421;255;1272;-53
2021/01/26 05:50:24;;;;;;;;;;;19.10;35.60;;;;;;470520;253;1189;-54
2021/01/26 05:52:25;;;;;;;;;;;19.20;35.70;;;;;;466427;256;2142;-54
2021/01/26 05:54:26;;;;;;;;;;;19.20;35.60;;;;;;470456;253;987;-53
2021/01/26 05:56:28;;;;;;;;;;;19.20;35.60;;;;;;466488;255;1065;-54
2021/01/26 05:58:29;;;;;;;;;;;19.20;35.60;;;;;;470560;253;1049;-53
2021/01/26 06:00:30;;;;;;;;;;;19.20;34.30;;;;;;466348;256;1206;-54
2021/01/26 06:02:32;;;;;;;;;;;19.20;35.60;;;;;;470477;253;1236;-53
2021/01/26 06:04:34;;;;;;;;;;;19.20;35.50;;;;;;466428;255;1125;-54
2021/01/26 06:06:34;;;;;;;;;;;19.20;35.50;;;;;;470466;253;2066;-53
2021/01/26 06:08:35;;;;;;;;;;;19.30;35.60;;;;;;470457;252;1190;-54
2021/01/26 06:10:37;;;;;;;;;;;19.30;35.60;;;;;;466392;255;1119;-53
2021/01/26 06:12:38;;;;;;;;;;;19.30;35.50;;;;;;470310;253;2203;-53
2021/01/26 06:14:39;;;;;;;;;;;19.30;35.50;;;;;;466379;255;1090;-53
2021/01/26 06:16:41;;;;;;;;;;;19.30;35.50;;;;;;470320;253;1175;-54
2021/01/26 06:18:42;;;;;;;;;;;19.30;35.50;;;;;;466283;255;1067;-54
2021/01/26 06:20:43;;;;;;;;;;;19.30;35.50;;;;;;470471;253;1074;-54
2021/01/26 06:22:45;;;;;;;;;;;19.30;35.50;;;;;;466338;255;1053;-54
2021/01/26 06:24:46;;;;;;;;;;;19.30;35.40;;;;;;470348;253;1259;-54
2021/01/26 06:26:47;;;;;;;;;;;19.30;35.40;;;;;;466296;256;1228;-54
2021/01/26 06:28:49;;;;;;;;;;;19.30;35.40;;;;;;470433;253;1099;-54
2021/01/26 06:30:50;;;;;;;;;;;19.30;35.40;;;;;;466388;255;1125;-54
2021/01/26 06:32:51;;;;;;;;;;;19.30;35.40;;;;;;470348;253;2176;-53
2021/01/26 06:34:52;;;;;;;;;;;19.30;35.40;;;;;;466157;255;1231;-54
2021/01/26 06:36:54;;;;;;;;;;;19.30;34.00;;;;;;470317;253;1160;-53
2021/01/26 06:38:55;;;;;;;;;;;19.40;35.40;;;;;;466222;255;1087;-54
2021/01/26 06:40:56;;;;;;;;;;;19.30;35.30;;;;;;470351;253;1054;-54
2021/01/26 06:42:57;;;;;;;;;;;19.40;35.40;;;;;;466230;255;1257;-54
2021/01/26 06:44:59;;;;;;;;;;;19.40;35.40;;;;;;470272;253;1406;-54
2021/01/26 06:47:00;;;;;;;;;;;19.40;35.40;;;;;;466225;255;1254;-54
2021/01/26 06:49:02;;;;;;;;;;;19.40;35.40;;;;;;470350;253;1181;-54
2021/01/26 06:51:03;;;;;;;;;;;19.40;35.30;;;;;;466077;255;1065;-54
2021/01/26 06:53:04;;;;;;;;;;;19.40;35.30;;;;;;470206;253;2152;-54
2021/01/26 06:55:06;;;;;;;;;;;19.40;35.30;;;;;;466279;255;1107;-53
2021/01/26 06:57:07;;;;;;;;;;;19.40;35.30;;;;;;470261;253;1382;-54
2021/01/26 06:59:08;;;;;;;;;;;19.40;35.30;;;;;;466214;256;1128;-54
2021/01/26 07:01:10;;;;;;;;;;;19.40;35.30;;;;;;470164;253;1200;-54
2021/01/26 07:03:11;;;;;;;;;;;19.40;35.30;;;;;;466251;255;1202;-54
2021/01/26 07:05:12;;;;;;;;;;;19.40;35.30;;;;;;470310;253;1207;-53
2021/01/26 07:07:13;;;;;;;;;;;19.50;35.30;;;;;;466236;255;1072;-54
2021/01/26 07:09:15;;;;;;;;;;;19.50;35.30;;;;;;470317;253;1061;-54
2021/01/26 07:11:16;;;;;;;;;;;19.50;35.30;;;;;;466198;255;1116;-54
2021/01/26 07:13:17;;;;;;;;;;;19.50;35.30;;;;;;470237;253;2207;-54
2021/01/26 07:15:18;;;;;;;;;;;19.50;35.30;;;;;;466264;255;1059;-54
2021/01/26 07:17:20;;;;;;;;;;;19.50;35.30;;;;;;470269;253;1188;-54
2021/01/26 07:19:21;;;;;;;;;;;19.50;35.20;;;;;;466063;256;1261;-54
2021/01/26 07:21:22;;;;;;;;;;;19.50;35.20;;;;;;470134;253;1073;-54
2021/01/26 07:23:24;;;;;;;;;;;19.50;35.20;;;;;;465955;256;1092;-54
2021/01/26 07:25:25;;;;;;;;;;;19.50;35.20;;;;;;470065;253;1097;-54
2021/01/26 07:27:26;;;;;;;;;;;19.50;35.20;;;;;;466012;256;1075;-54
2021/01/26 07:29:30;;;;;;;;;;;19.50;35.20;;;;;;469989;253;1072;-54
2021/01/26 07:31:31;;;;;;;;;;;19.50;35.20;;;;;;465779;255;1107;-54
2021/01/26 07:33:33;;;;;;;;;;;19.50;35.20;;;;;;470003;253;2171;-54
2021/01/26 07:35:34;;;;;;;;;;;19.60;35.20;;;;;;466098;255;1222;-54
2021/01/26 07:37:35;;;;;;;;;;;19.50;35.20;;;;;;470048;253;1058;-54
2021/01/26 07:39:36;;;;;;;;;;;19.50;33.80;;;;;;465934;255;1268;-54
2021/01/26 07:41:38;;;;;;;;;;;19.60;35.20;;;;;;470106;253;1070;-54
2021/01/26 07:43:39;;;;;;;;;;;19.60;33.90;;;;;;465845;256;1048;-54
2021/01/26 07:45:40;;;;;;;;;;;19.60;35.10;;;;;;470014;253;1193;-53
2021/01/26 07:47:41;;;;;;;;;;;19.60;35.10;;;;;;465953;255;1407;-54
2021/01/26 07:49:43;;;;;;;;;;;19.60;35.10;;;;;;470098;253;1404;-54
2021/01/26 07:51:44;;;;;;;;;;;19.60;35.10;;;;;;465768;255;1128;-54
2021/01/26 07:53:46;;;;;;;;;;;19.60;35.10;;;;;;469884;253;2195;-54
2021/01/26 07:55:47;;;;;;;;;;;19.60;35.10;;;;;;465967;255;1094;-54
2021/01/26 07:57:48;;;;;;;;;;;19.60;35.10;;;;;;469793;253;1151;-54
2021/01/26 07:59:50;;;;;;;;;;;19.60;35.10;;;;;;465775;256;1254;-53
2021/01/26 08:01:51;;;;;;;;;;;19.60;35.10;;;;;;470006;253;1125;-53
2021/01/26 08:03:52;;;;;;;;;;;19.60;35.00;;;;;;465860;255;1149;-52
2021/01/26 08:05:54;;;;;;;;;;;19.60;35.10;;;;;;469825;253;1158;-54
2021/01/26 08:07:55;;;;;;;;;;;19.60;35.10;;;;;;465773;255;1246;-54
2021/01/26 08:09:56;;;;;;;;;;;19.60;35.10;;;;;;469934;253;1086;-54
2021/01/26 08:11:58;;;;;;;;;;;19.60;35.00;;;;;;465908;255;1286;-54
2021/01/26 08:13:59;;;;;;;;;;;19.60;35.00;;;;;;469954;253;2187;-54
2021/01/26 08:16:03;;;;;;;;;;;19.60;35.00;;;;;;465921;256;1307;-53
2021/01/26 08:18:02;;;;;;;;;;;19.70;35.10;;;;;;469762;253;1419;-54
2021/01/26 08:20:03;;;;;;;;;;;19.70;35.00;;;;;;470024;253;1098;-54
2021/01/26 08:22:04;;;;;;;;;;;19.70;35.10;;;;;;466028;255;1100;-54
2021/01/26 08:24:06;;;;;;;;;;;19.70;35.10;;;;;;470039;253;1170;-53
2021/01/26 08:26:07;;;;;;;;;;;19.70;35.10;;;;;;465948;256;1107;-54
2021/01/26 08:28:08;;;;;;;;;;;19.70;35.00;;;;;;469892;253;1062;-54
2021/01/26 08:30:10;;;;;;;;;;;19.70;35.00;;;;;;465820;255;1064;-54
2021/01/26 08:32:11;;;;;;;;;;;19.70;35.00;;;;;;469791;253;1245;-54
2021/01/26 08:34:13;;;;;;;;;;;19.70;35.00;;;;;;465937;255;2181;-54
2021/01/26 08:36:14;;;;;;;;;;;19.70;35.00;;;;;;470052;253;1219;-54
2021/01/26 08:38:15;;;;;;;;;;;19.70;35.00;;;;;;465864;255;1250;-54
2021/01/26 08:40:16;;;;;;;;;;;19.70;33.70;;;;;;469943;253;1111;-54
2021/01/26 08:42:18;;;;;;;;;;;19.70;35.00;;;;;;465850;256;1344;-53
2021/01/26 08:44:19;;;;;;;;;;;19.70;33.70;;;;;;469907;253;1178;-53
2021/01/26 08:46:21;;;;;;;;;;;19.70;35.00;;;;;;465845;255;1112;-54
2021/01/26 08:48:22;;;;;;;;;;;19.70;34.90;;;;;;469864;253;1189;-54
2021/01/26 08:50:23;;;;;;;;;;;19.70;35.00;;;;;;465786;255;1302;-54
2021/01/26 08:52:24;;;;;;;;;;;19.70;33.60;;;;;;469845;253;2141;-54
2021/01/26 08:54:26;;;;;;;;;;;19.70;33.60;;;;;;465907;255;1170;-53
2021/01/26 08:56:27;;;;;;;;;;;19.70;34.90;;;;;;470040;253;1140;-53
2021/01/26 08:58:28;;;;;;;;;;;19.70;34.90;;;;;;465829;254;1342;-54
2021/01/26 09:00:29;;;;;;;;;;;19.70;34.90;;;;;;469963;253;1107;-53
2021/01/26 09:02:31;;;;;;;;;;;19.70;34.90;;;;;;465833;256;1119;-53
2021/01/26 09:04:32;;;;;;;;;;;19.70;34.90;;;;;;470017;253;1446;-54
2021/01/26 09:06:33;;;;;;;;;;;19.80;34.90;;;;;;465826;255;1262;-54
2021/01/26 09:08:35;;;;;;;;;;;19.80;34.90;;;;;;469997;253;1161;-54
2021/01/26 09:10:36;;;;;;;;;;;19.80;34.90;;;;;;466093;255;1078;-53
2021/01/26 09:12:37;;;;;;;;;;;19.80;34.90;;;;;;470036;253;2199;-54
2021/01/26 09:14:38;;;;;;;;;;;19.80;34.90;;;;;;466001;256;1097;-54
2021/01/26 09:16:41;;;;;;;;;;;19.80;34.90;;;;;;470018;253;1076;-54
2021/01/26 09:18:42;;;;;;;;;;;19.80;33.60;;;;;;465865;256;1220;-54
2021/01/26 09:20:43;;;;;;;;;;;19.80;34.90;;;;;;470044;253;1072;-53
2021/01/26 09:22:45;;;;;;;;;;;19.80;34.90;;;;;;465976;256;1152;-53
2021/01/26 09:24:46;;;;;;;;;;;19.80;34.90;;;;;;470113;253;1149;-54
2021/01/26 09:26:47;;;;;;;;;;;19.80;34.90;;;;;;465966;255;1123;-54
2021/01/26 09:28:49;;;;;;;;;;;19.80;34.90;;;;;;470075;253;1124;-54
2021/01/26 09:30:50;;;;;;;;;;;19.80;34.90;;;;;;465787;255;1102;-53
2021/01/26 09:32:51;;;;;;;;;;;19.80;34.80;;;;;;469856;253;2199;-54
2021/01/26 09:34:53;;;;;;;;;;;19.80;34.90;;;;;;466014;255;1216;-53
2021/01/26 09:36:54;;;;;;;;;;;19.80;34.90;;;;;;470057;253;1089;-54
2021/01/26 09:38:55;;;;;;;;;;;19.80;34.80;;;;;;465959;256;1208;-54
2021/01/26 09:40:57;;;;;;;;;;;19.80;34.80;;;;;;469780;253;1224;-54
2021/01/26 09:42:58;;;;;;;;;;;19.80;34.80;;;;;;465553;256;1227;-53
2021/01/26 09:44:59;;;;;;;;;;;19.90;34.80;;;;;;470040;253;1240;-54
2021/01/26 09:47:00;;;;;;;;;;;19.80;34.80;;;;;;466001;255;1050;-54
2021/01/26 09:49:02;;;;;;;;;;;19.90;34.90;;;;;;470017;253;1198;-53
2021/01/26 09:51:03;;;;;;;;;;;19.90;35.10;;;;;;465850;255;1105;-54
2021/01/26 09:53:05;;;;;;;;;;;19.90;35.00;;;;;;469870;253;2203;-54
2021/01/26 09:55:06;;;;;;;;;;;19.90;34.90;;;;;;465832;255;2239;-54
2021/01/26 09:57:07;;;;;;;;;;;19.90;34.90;;;;;;469759;253;1213;-54
2021/01/26 09:59:08;;;;;;;;;;;19.90;34.90;;;;;;465883;255;1110;-54
2021/01/26 10:01:09;;;;;;;;;;;19.90;35.00;;;;;;469928;253;1406;-54
2021/01/26 10:03:11;;;;;;;;;;;19.90;35.00;;;;;;465958;256;1225;-53
2021/01/26 10:05:12;;;;;;;;;;;19.90;34.90;;;;;;469923;253;1201;-54
2021/01/26 10:07:14;;;;;;;;;;;19.90;35.00;;;;;;465841;255;1163;-53
2021/01/26 10:09:15;;;;;;;;;;;19.90;35.10;;;;;;469873;253;1726;-54
2021/01/26 10:11:18;;;;;;;;;;;19.90;35.20;;;;;;465965;255;1298;-54
2021/01/26 10:13:17;;;;;;;;;;;19.90;33.90;;;;;;469998;253;2187;-53
2021/01/26 10:15:19;;;;;;;;;;;19.90;35.20;;;;;;470063;253;1063;-54
2021/01/26 10:17:20;;;;;;;;;;;19.90;34.00;;;;;;465966;255;1229;-54
2021/01/26 10:19:21;;;;;;;;;;;19.90;35.30;;;;;;469857;253;1222;-54
2021/01/26 10:21:22;;;;;;;;;;;19.90;35.40;;;;;;469807;252;1180;-53
2021/01/26 10:23:24;;;;;;;;;;;19.90;34.20;;;;;;465690;255;1093;-54
2021/01/26 10:25:25;;;;;;;;;;;19.90;35.70;;;;;;469880;253;1084;-54
2021/01/26 10:27:26;;;;;;;;;;;19.90;34.40;;;;;;465787;255;1084;-54
2021/01/26 10:29:28;;;;;;;;;;;19.90;35.70;;;;;;469952;253;1108;-54
2021/01/26 10:31:29;;;;;;;;;;;19.90;34.50;;;;;;465882;255;1122;-54
2021/01/26 10:33:30;;;;;;;;;;;19.90;35.80;;;;;;469949;253;2195;-54
2021/01/26 10:35:32;;;;;;;;;;;19.90;35.90;;;;;;465883;255;1220;-54
2021/01/26 10:37:34;;;;;;;;;;;20.00;34.80;;;;;;469946;253;1106;-53
2021/01/26 10:39:34;;;;;;;;;;;20.00;36.10;;;;;;465740;256;2604;-53
2021/01/26 10:41:36;;;;;;;;;;;20.00;34.80;;;;;;469991;253;1226;-54
2021/01/26 10:43:37;;;;;;;;;;;20.00;36.30;;;;;;465965;255;2186;-54
2021/01/26 10:45:38;;;;;;;;;;;20.00;36.10;;;;;;469792;253;1063;-54
2021/01/26 10:47:39;;;;;;;;;;;20.00;34.90;;;;;;465815;256;1480;-53
2021/01/26 10:49:41;;;;;;;;;;;20.00;36.20;;;;;;469996;253;1117;-54
2021/01/26 10:51:42;;;;;;;;;;;20.00;36.10;;;;;;465834;256;1114;-53
2021/01/26 10:53:43;;;;;;;;;;;20.00;34.90;;;;;;469915;253;2207;-54
2021/01/26 10:55:45;;;;;;;;;;;20.10;36.40;;;;;;465886;255;1080;-54
2021/01/26 10:57:46;;;;;;;;;;;20.00;35.00;;;;;;469847;253;1082;-53
2021/01/26 10:59:47;;;;;;;;;;;20.10;36.20;;;;;;465881;255;1173;-54
2021/01/26 11:01:48;;;;;;;;;;;20.20;36.20;;;;;;469862;253;1106;-54
2021/01/26 11:03:50;;;;;;;;;;;20.10;34.80;;;;;;465815;256;1097;-54
2021/01/26 11:05:51;;;;;;;;;;;20.10;36.10;;;;;;469958;253;1434;-53
2021/01/26 11:07:52;;;;;;;;;;;20.10;36.10;;;;;;465851;256;1083;-54
2021/01/26 11:09:54;;;;;;;;;;;20.00;36.20;;;;;;470088;253;1063;-54
2021/01/26 11:11:55;;;;;;;;;;;19.90;36.30;;;;;;466005;256;1100;-54
2021/01/26 11:13:56;;;;;;;;;;;19.90;36.40;;;;;;470066;253;2214;-54
2021/01/26 11:15:58;;;;;;;;;;;19.80;36.30;;;;;;466077;255;1145;-54
2021/01/26 11:17:59;;;;;;;;;;;19.80;36.40;;;;;;470025;253;1112;-53
2021/01/26 11:20:00;;;;;;;;;;;19.70;36.50;;;;;;466025;255;2258;-54
2021/01/26 11:22:01;;;;;;;;;;;19.80;36.60;;;;;;469934;251;1418;-53
2021/01/26 11:24:03;;;;;;;;;;;19.70;36.60;;;;;;466044;255;1127;-54
2021/01/26 11:26:04;;;;;;;;;;;19.60;36.60;;;;;;470100;253;1114;-54
2021/01/26 11:28:05;;;;;;;;;;;19.60;36.70;;;;;;465913;256;1178;-54
2021/01/26 11:30:06;;;;;;;;;;;19.50;36.70;;;;;;470049;253;1157;-53
2021/01/26 11:32:08;;;;;;;;;;;19.50;36.80;;;;;;466154;255;1603;-54
2021/01/26 11:34:09;;;;;;;;;;;19.40;36.70;;;;;;469978;253;2168;-53
2021/01/26 11:36:10;;;;;;;;;;;19.40;36.80;;;;;;465929;255;1336;-54
2021/01/26 11:38:12;;;;;;;;;;;19.40;36.90;;;;;;470058;253;1222;-54
2021/01/26 11:40:13;;;;;;;;;;;19.40;36.90;;;;;;466114;255;1186;-53
2021/01/26 11:42:14;;;;;;;;;;;19.30;36.90;;;;;;470110;253;1342;-53
2021/01/26 11:44:15;;;;;;;;;;;19.30;37.00;;;;;;466024;256;1095;-54
2021/01/26 11:46:17;;;;;;;;;;;19.30;37.00;;;;;;470149;253;1592;-53
2021/01/26 11:48:18;;;;;;;;;;;19.30;37.00;;;;;;465893;255;1068;-54
2021/01/26 11:50:19;;;;;;;;;;;19.20;35.80;;;;;;469963;253;1357;-54
2021/01/26 11:52:21;;;;;;;;;;;19.20;37.10;;;;;;466034;255;1097;-53
2021/01/26 11:54:22;;;;;;;;;;;19.10;37.00;;;;;;469993;253;2203;-54
2021/01/26 11:56:23;;;;;;;;;;;19.10;37.10;;;;;;465904;255;1229;-52